Time;durP1;ratioP1;P1;durP2;ratioP2;P2;SDS_P1;SDS_P2;PMS_P1;PMS_P2;Temp;Humidity;BMP_temperature;BMP_pressure;BME280_temperature;BME280_humidity;BME280_pressure;Samples;Min_cycle;Max_cycle;Signal;HPM_P1;HPM_P2
2021/12/17 00:03:22;;;;;;;10.40;3.60;;;;;;;3.26;84.33;100735.27;431886;1317;145219;-62
2021/12/17 00:13:27;;;;;;;13.20;5.00;;;;;;;3.18;84.53;100740.40;432756;1316;142538;-61
2021/12/17 00:54:58;;;;;;;9.80;3.50;;;;;;;2.96;84.75;100756.80;423234;1318;143060;-61
2021/12/17 01:05:10;;;;;;;10.50;3.10;;;;;;;2.95;84.43;100757.02;432823;1318;142177;-61
2021/12/17 01:15:19;;;;;;;10.80;4.90;;;;;;;2.94;85.00;100757.35;431579;1317;142416;-65
2021/12/17 01:25:41;;;;;;;9.40;4.40;;;;;;;2.93;84.67;100759.96;426434;1315;142216;-65
2021/12/17 01:35:47;;;;;;;11.10;5.00;;;;;;;2.89;84.86;100764.69;432817;1318;142546;-65
2021/12/17 01:45:54;;;;;;;9.00;4.30;;;;;;;2.86;84.85;100767.14;430699;1318;143669;-66
2021/12/17 01:56:15;;;;;;;8.10;3.60;;;;;;;2.85;84.97;100772.36;431103;1318;142640;-63
2021/12/17 02:06:23;;;;;;;11.50;3.80;;;;;;;2.87;84.86;100769.73;432147;1318;144511;-67
2021/12/17 02:37:20;;;;;;;11.50;3.90;;;;;;;2.89;84.82;100746.17;421586;1318;141990;-68
2021/12/17 02:47:26;;;;;;;14.20;5.20;;;;;;;2.87;84.57;100744.99;421913;1318;141889;-66
2021/12/17 02:57:32;;;;;;;9.50;3.70;;;;;;;2.87;84.98;100750.02;431346;1318;145468;-67
2021/12/17 03:07:42;;;;;;;14.70;3.90;;;;;;;2.84;84.93;100753.52;430028;1318;142723;-67
2021/12/17 03:18:28;;;;;;;12.60;5.50;;;;;;;2.78;84.87;100748.39;425585;1318;143238;-66
2021/12/17 03:28:30;;;;;;;21.30;5.20;;;;;;;2.75;85.07;100742.56;429170;1318;193101;-67
2021/12/17 03:38:36;;;;;;;13.80;4.40;;;;;;;2.69;85.09;100726.04;430533;1316;142309;-67
2021/12/17 03:48:42;;;;;;;8.40;3.50;;;;;;;2.65;84.72;100718.66;415517;1318;142814;-67
2021/12/17 03:58:49;;;;;;;15.90;4.20;;;;;;;2.58;84.89;100702.31;432886;1314;142719;-66
2021/12/17 04:08:55;;;;;;;11.10;3.50;;;;;;;2.53;85.00;100705.65;429699;1318;164619;-65
2021/12/17 04:19:02;;;;;;;11.20;4.00;;;;;;;2.57;84.70;100719.27;432827;1316;195857;-66
2021/12/17 04:29:08;;;;;;;11.60;4.30;;;;;;;2.57;84.56;100712.54;432795;1318;142254;-66
2021/12/17 04:39:16;;;;;;;20.60;4.00;;;;;;;2.58;84.56;100716.84;432104;1318;142027;-66
2021/12/17 04:59:45;;;;;;;9.90;3.50;;;;;;;2.51;84.68;100708.45;432723;1318;141708;-65
2021/12/17 05:09:58;;;;;;;17.60;4.30;;;;;;;2.50;84.60;100717.45;430330;1318;143103;-68
2021/12/17 05:20:17;;;;;;;12.20;5.10;;;;;;;2.56;84.42;100709.95;431088;1318;142405;-68
2021/12/17 05:30:23;;;;;;;11.90;2.90;;;;;;;2.62;84.45;100729.93;431453;1319;141978;-67
2021/12/17 05:40:29;;;;;;;12.00;4.00;;;;;;;2.64;84.18;100738.21;423690;1318;142659;-67
2021/12/17 05:50:36;;;;;;;9.60;3.40;;;;;;;2.66;84.36;100740.42;432779;1318;144620;-67
2021/12/17 06:00:44;;;;;;;8.90;4.00;;;;;;;2.68;84.07;100744.73;428685;1318;142491;-68
2021/12/17 06:10:49;;;;;;;12.80;4.60;;;;;;;2.65;84.21;100743.54;432727;1318;143172;-65
2021/12/17 06:20:55;;;;;;;12.90;4.80;;;;;;;2.63;84.35;100728.19;429528;1318;165276;-64
2021/12/17 06:31:01;;;;;;;12.70;5.40;;;;;;;2.58;84.45;100714.23;431148;1320;145205;-66
2021/12/17 06:41:07;;;;;;;10.90;4.50;;;;;;;2.53;84.86;100717.60;432776;1318;141913;-66
2021/12/17 07:22:29;;;;;;;14.20;6.30;;;;;;;2.39;85.14;100730.91;428468;1316;142572;-66
2021/12/17 07:32:45;;;;;;;10.80;4.10;;;;;;;2.43;85.20;100718.77;430523;1319;142045;-67
2021/12/17 07:42:54;;;;;;;11.70;4.00;;;;;;;2.48;85.24;100713.35;430393;1314;142457;-66
2021/12/17 07:53:00;;;;;;;18.60;4.70;;;;;;;2.49;85.17;100723.01;431622;1319;142750;-67
2021/12/17 08:03:06;;;;;;;16.60;6.60;;;;;;;2.56;85.32;100741.77;429917;1318;142052;-64
2021/12/17 08:13:19;;;;;;;11.10;5.80;;;;;;;2.61;85.28;100745.51;431993;1321;142187;-67
2021/12/17 08:33:49;;;;;;;12.40;6.50;;;;;;;2.60;85.22;100766.27;430404;1319;141961;-61
2021/12/17 08:43:54;;;;;;;12.10;5.60;;;;;;;2.59;85.05;100757.63;430830;1318;142182;-67
2021/12/17 08:54:00;;;;;;;16.90;5.90;;;;;;;2.59;84.89;100769.55;430895;1320;143186;-71
2021/12/17 09:04:06;;;;;;;10.30;4.90;;;;;;;2.60;84.84;100770.07;423499;1318;142684;-69
2021/12/17 09:14:13;;;;;;;14.00;5.90;;;;;;;2.64;84.74;100771.23;419030;1319;141448;-66
2021/12/17 09:24:19;;;;;;;17.60;7.10;;;;;;;2.70;84.81;100763.71;427509;1323;142269;-65
2021/12/17 09:34:25;;;;;;;13.30;5.70;;;;;;;2.81;84.39;100769.11;424449;1321;141985;-65
2021/12/17 09:44:31;;;;;;;18.50;6.30;;;;;;;2.92;84.09;100772.08;431626;1320;142530;-67
2021/12/17 09:54:37;;;;;;;13.30;4.80;;;;;;;2.96;83.91;100777.56;424522;1317;142506;-65
2021/12/17 10:04:45;;;;;;;15.70;6.60;;;;;;;2.96;83.69;100786.05;428482;1317;144541;-62
2021/12/17 10:14:59;;;;;;;;;;;;;;;2.98;83.78;100780.83;431087;1320;142995;-68
2021/12/17 10:25:08;;;;;;;10.00;4.30;;;;;;;3.09;83.55;100778.77;426123;1321;128958;-62
2021/12/17 10:35:17;;;;;;;10.50;4.90;;;;;;;3.21;83.55;100777.23;426079;1319;142859;-60
2021/12/17 10:45:27;;;;;;;10.90;4.80;;;;;;;3.27;83.07;100756.71;431609;1319;143187;-66
2021/12/17 10:55:33;;;;;;;11.00;4.80;;;;;;;3.29;82.60;100752.89;426738;1320;142724;-64
2021/12/17 11:05:40;;;;;;;11.40;4.60;;;;;;;3.27;82.45;100750.13;416791;1319;143024;-66
2021/12/17 11:15:46;;;;;;;16.80;5.60;;;;;;;3.26;82.49;100746.01;429797;1319;142393;-65
2021/12/17 11:25:54;;;;;;;15.90;6.60;;;;;;;3.34;82.37;100731.69;416340;1316;142580;-70
2021/12/17 11:35:58;;;;;;;;;;;;;;;3.32;82.18;100728.95;427845;1317;146230;-66
2021/12/17 11:46:07;;;;;;;11.20;4.30;;;;;;;3.34;81.93;100731.52;422910;1318;131225;-66
2021/12/17 11:56:13;;;;;;;9.40;4.00;;;;;;;3.33;81.68;100723.56;425831;1318;142430;-69
2021/12/17 12:06:35;;;;;;;10.60;3.90;;;;;;;3.38;81.33;100725.05;430949;1319;142605;-68
2021/12/17 12:16:43;;;;;;;7.00;3.70;;;;;;;3.47;80.93;100718.67;432912;1318;142955;-72
2021/12/17 12:26:52;;;;;;;9.40;3.40;;;;;;;3.54;80.39;100713.02;431337;1316;141932;-68
2021/12/17 12:37:00;;;;;;;10.60;3.50;;;;;;;3.64;80.37;100703.33;432969;1318;145103;-69
2021/12/17 12:47:07;;;;;;;11.90;3.20;;;;;;;3.82;80.07;100691.05;429588;1320;142305;-65
2021/12/17 12:57:13;;;;;;;10.10;3.40;;;;;;;3.91;79.24;100680.49;431560;1315;143853;-61
2021/12/17 13:07:30;;;;;;;13.60;4.20;;;;;;;3.84;78.95;100685.13;427971;1321;143574;-61
2021/12/17 13:20:14;;;;;;;15.70;5.50;;;;;;;3.80;79.06;100682.95;426427;1318;141284;-62
2021/12/17 13:28:07;;;;;;;13.80;6.40;;;;;;;3.73;79.29;100684.65;427232;1316;142192;-61
2021/12/17 13:38:13;;;;;;;12.50;6.40;;;;;;;3.59;79.63;100696.15;432541;1318;141435;-59
2021/12/17 13:48:19;;;;;;;11.80;4.50;;;;;;;3.46;79.72;100719.91;431908;1319;143709;-59
2021/12/17 13:58:28;;;;;;;8.50;4.00;;;;;;;3.43;79.31;100749.55;429413;1318;142020;-61
2021/12/17 14:08:41;;;;;;;16.80;5.70;;;;;;;3.40;79.14;100753.06;431063;1318;143281;-65
2021/12/17 14:18:55;;;;;;;8.70;3.80;;;;;;;3.30;79.32;100738.68;431459;1318;143659;-69
2021/12/17 14:29:11;;;;;;;15.50;5.00;;;;;;;3.19;79.53;100731.40;431099;1318;152102;-70
2021/12/17 14:39:22;;;;;;;15.00;5.70;;;;;;;3.08;79.62;100731.04;430311;1318;142739;-67
2021/12/17 15:10:16;;;;;;;13.50;4.50;;;;;;;2.81;80.52;100757.19;430419;1321;141809;-66
2021/12/17 15:20:23;;;;;;;9.60;4.60;;;;;;;2.87;80.57;100764.02;421374;1319;142283;-62
2021/12/17 15:30:32;;;;;;;13.50;3.80;;;;;;;2.78;80.49;100749.09;427064;1319;141795;-62
2021/12/17 15:40:40;;;;;;;13.70;5.00;;;;;;;2.61;80.50;100754.67;431803;1319;142444;-62
2021/12/17 15:50:44;;;;;;;;;;;;;;;2.59;80.61;100749.84;430652;1318;142817;-62
2021/12/17 16:00:51;;;;;;;11.70;4.00;;;;;;;2.68;80.62;100750.79;431239;1321;130375;-61
2021/12/17 16:11:14;;;;;;;12.70;6.10;;;;;;;2.73;80.82;100770.42;421153;1320;142470;-61
2021/12/17 16:21:20;;;;;;;7.70;4.60;;;;;;;2.76;80.40;100780.41;429241;1320;142553;-62
2021/12/17 16:31:27;;;;;;;13.30;4.20;;;;;;;2.78;80.33;100780.92;431414;1319;143004;-61
2021/12/17 16:41:32;;;;;;;;;;;;;;;2.76;80.41;100786.29;430501;1316;141566;-61
2021/12/17 16:51:38;;;;;;;15.00;4.50;;;;;;;2.72;80.27;100788.07;431879;1321;128464;-61
2021/12/17 17:01:43;;;;;;;10.60;4.90;;;;;;;2.70;80.66;100794.33;431377;1318;143019;-61
2021/12/17 17:11:51;;;;;;;9.80;4.00;;;;;;;2.75;80.55;100805.50;430966;1318;141934;-63
2021/12/17 17:21:58;;;;;;;8.50;3.80;;;;;;;2.81;80.46;100801.98;432793;1317;143298;-64
2021/12/17 17:32:09;;;;;;;7.20;4.40;;;;;;;2.88;80.41;100783.20;429836;1318;141886;-64
2021/12/17 17:42:15;;;;;;;12.10;4.80;;;;;;;2.91;80.39;100805.83;430736;1319;141918;-64
2021/12/17 17:52:21;;;;;;;16.60;6.80;;;;;;;2.88;80.14;100801.71;432414;1318;142304;-64
2021/12/17 18:02:27;;;;;;;8.00;3.40;;;;;;;2.93;79.89;100789.38;432582;1317;142415;-64
2021/12/17 18:12:33;;;;;;;8.80;4.90;;;;;;;2.99;79.69;100805.20;431804;1318;142283;-64
2021/12/17 18:22:40;;;;;;;11.50;6.00;;;;;;;2.92;79.91;100823.28;432452;1315;142079;-65
2021/12/17 18:32:49;;;;;;;19.80;6.60;;;;;;;2.84;80.05;100830.64;431834;1318;142141;-64
2021/12/17 18:53:22;;;;;;;10.80;7.00;;;;;;;2.67;80.33;100856.27;432262;1320;142225;-64
2021/12/17 19:03:28;;;;;;;11.10;6.40;;;;;;;2.56;80.43;100867.61;431604;1318;142050;-64
2021/12/17 19:13:34;;;;;;;13.00;6.80;;;;;;;2.48;80.80;100877.02;429265;1320;142820;-64
2021/12/17 19:23:40;;;;;;;13.20;5.90;;;;;;;2.40;80.97;100894.73;423076;1318;141916;-65
2021/12/17 19:33:47;;;;;;;14.40;6.80;;;;;;;2.34;81.24;100904.45;415136;1319;305266;-64
2021/12/17 19:43:53;;;;;;;9.10;5.70;;;;;;;2.25;81.33;100900.05;415819;1318;140407;-64
2021/12/17 19:54:00;;;;;;;12.70;6.80;;;;;;;2.18;81.41;100916.86;430269;1316;143936;-65
2021/12/17 20:04:09;;;;;;;14.20;6.80;;;;;;;2.14;81.53;100924.84;432485;1318;142349;-64
2021/12/17 20:14:15;;;;;;;9.20;4.80;;;;;;;2.10;81.58;100937.48;432715;1315;141845;-64
2021/12/17 20:24:21;;;;;;;9.20;5.30;;;;;;;2.13;81.65;100933.83;431783;1318;143509;-64
2021/12/17 20:34:28;;;;;;;8.10;5.80;;;;;;;2.12;81.20;100931.95;430814;1318;141452;-63
2021/12/17 20:44:34;;;;;;;11.40;5.60;;;;;;;2.01;81.34;100934.09;415850;1319;142734;-65
2021/12/17 20:54:40;;;;;;;11.30;4.80;;;;;;;1.81;81.36;100947.52;415132;1318;142018;-65
2021/12/17 21:04:46;;;;;;;11.50;4.70;;;;;;;1.72;81.64;100959.48;430151;1316;142235;-65
2021/12/17 21:14:52;;;;;;;13.10;5.60;;;;;;;1.65;81.78;100966.07;416942;1318;141967;-64
2021/12/17 21:24:58;;;;;;;13.10;5.70;;;;;;;1.61;81.98;100976.98;416254;1318;140323;-64
2021/12/17 21:35:15;;;;;;;13.40;5.30;;;;;;;1.61;82.18;100981.46;416421;1318;142613;-65
2021/12/17 21:45:22;;;;;;;9.90;5.00;;;;;;;1.67;82.18;100981.61;431834;1318;142317;-64
2021/12/17 21:55:28;;;;;;;11.50;5.90;;;;;;;1.68;82.34;100985.57;432871;1318;143711;-65
2021/12/17 22:05:34;;;;;;;9.40;4.50;;;;;;;1.71;82.22;100996.61;432720;1318;141370;-66
2021/12/17 22:15:41;;;;;;;15.10;5.20;;;;;;;1.73;82.15;101014.04;432017;1319;142031;-65
2021/12/17 22:25:47;;;;;;;12.20;5.20;;;;;;;1.75;82.25;101014.20;418067;1319;142152;-65
2021/12/17 22:35:53;;;;;;;13.00;6.40;;;;;;;1.74;82.34;101021.63;416378;1318;140945;-64
2021/12/17 22:46:00;;;;;;;7.00;5.00;;;;;;;1.66;82.27;101018.55;416337;1318;141874;-63
2021/12/17 22:56:07;;;;;;;11.70;5.10;;;;;;;1.62;82.61;101019.43;416482;1318;141411;-61
2021/12/17 23:06:14;;;;;;;15.60;6.50;;;;;;;1.54;82.56;101018.26;430325;1318;142496;-63
2021/12/17 23:16:22;;;;;;;12.30;5.80;;;;;;;1.52;82.77;101023.77;432626;1318;142246;-64
2021/12/17 23:26:26;;;;;;;;;;;;;;;1.56;82.57;101024.11;430888;1319;142129;-64
2021/12/17 23:36:33;;;;;;;10.60;5.50;;;;;;;1.58;82.77;101050.86;426249;1319;127854;-63
2021/12/17 23:46:40;;;;;;;11.50;6.50;;;;;;;1.58;82.77;101041.20;416404;1318;141927;-63
2021/12/17 23:56:47;;;;;;;11.40;5.10;;;;;;;1.54;82.93;101036.55;416608;1319;141946;-63
